createdAt,value
2023-04-16T00:02:11.686Z,8.09
2023-04-16T00:05:14.891Z,8.09
2023-04-16T00:08:16.974Z,8.04
2023-04-16T00:11:19.098Z,8.05
2023-04-16T00:14:20.910Z,8.12
2023-04-16T00:17:22.850Z,7.76
2023-04-16T00:20:24.760Z,7.54
2023-04-16T00:23:26.675Z,7.61
2023-04-16T00:26:28.550Z,7.63
2023-04-16T00:29:31.102Z,7.57
2023-04-16T00:32:33.140Z,7.35
2023-04-16T00:35:35.127Z,7.36
2023-04-16T00:38:37.394Z,7.17
2023-04-16T00:41:39.300Z,7.11
2023-04-16T00:44:41.266Z,7.08
2023-04-16T00:47:43.227Z,7.13
2023-04-16T00:50:45.453Z,7.17
2023-04-16T00:53:48.056Z,7.16
2023-04-16T00:56:51.041Z,7.22
2023-04-16T00:59:54.237Z,6.88
2023-04-16T01:02:56.532Z,6.84
2023-04-16T01:05:58.872Z,6.82
2023-04-16T01:09:00.806Z,6.72
2023-04-16T01:12:02.833Z,6.68
2023-04-16T01:15:05.195Z,6.72
2023-04-16T01:18:17.467Z,6.57
2023-04-16T01:21:19.347Z,6.58
2023-04-16T01:24:21.310Z,6.66
2023-04-16T01:27:23.206Z,6.75
2023-04-16T01:30:25.773Z,6.81
2023-04-16T01:33:59.974Z,6.81
2023-04-16T01:37:04.149Z,6.85
2023-04-16T01:40:06.937Z,7.01
2023-04-16T01:43:08.938Z,6.96
2023-04-16T01:46:20.504Z,7.03
2023-04-16T01:49:23.572Z,6.95
2023-04-16T01:52:25.538Z,6.98
2023-04-16T01:55:27.432Z,6.88
2023-04-16T01:58:30.265Z,6.93
2023-04-16T02:01:32.633Z,6.95
2023-04-16T02:04:34.588Z,6.87
2023-04-16T02:07:36.529Z,6.94
2023-04-16T02:10:38.522Z,6.87
2023-04-16T02:13:40.772Z,6.90
2023-04-16T02:16:42.667Z,7.05
2023-04-16T02:19:52.201Z,6.77
2023-04-16T02:22:54.574Z,6.72
2023-04-16T02:25:58.818Z,6.80
2023-04-16T02:29:01.442Z,6.97
2023-04-16T02:32:11.273Z,6.91
2023-04-16T02:35:13.474Z,6.98
2023-04-16T02:38:15.356Z,7.05
2023-04-16T02:41:17.534Z,7.01
2023-04-16T02:44:19.562Z,6.96
2023-04-16T02:47:22.862Z,6.96
2023-04-16T02:50:24.778Z,6.98
2023-04-16T02:53:26.777Z,6.91
2023-04-16T02:56:28.714Z,6.88
2023-04-16T02:59:30.785Z,6.97
2023-04-16T03:02:32.998Z,6.89
2023-04-16T03:05:35.039Z,6.80
2023-04-16T03:08:36.906Z,6.77
2023-04-16T03:11:38.967Z,6.60
2023-04-16T03:14:41.242Z,6.61
2023-04-16T03:17:43.190Z,6.46
2023-04-16T03:20:45.459Z,6.45
2023-04-16T03:23:47.859Z,6.41
2023-04-16T03:26:49.828Z,6.37
2023-04-16T03:29:52.535Z,6.40
2023-04-16T03:32:54.491Z,6.48
2023-04-16T03:35:59.420Z,6.50
2023-04-16T03:39:04.942Z,6.63
2023-04-16T03:42:07.109Z,6.73
2023-04-16T03:45:10.614Z,6.40
2023-04-16T03:48:13.989Z,6.15
2023-04-16T03:51:16.176Z,6.07
2023-04-16T03:54:18.723Z,6.11
2023-04-16T03:57:26.605Z,6.22
2023-04-16T04:00:32.583Z,6.21
2023-04-16T04:03:46.675Z,6.39
2023-04-16T04:06:49.043Z,6.45
2023-04-16T04:09:51.365Z,6.43
2023-04-16T04:12:53.362Z,6.25
2023-04-16T04:15:55.914Z,6.17
2023-04-16T04:19:00.154Z,6.36
2023-04-16T04:22:02.398Z,6.54
2023-04-16T04:25:04.697Z,6.59
2023-04-16T04:28:07.971Z,6.41
2023-04-16T04:31:10.083Z,6.83
2023-04-16T04:34:12.102Z,6.70
2023-04-16T04:37:13.941Z,6.81
2023-04-16T04:40:16.071Z,7.38
2023-04-16T04:43:22.130Z,7.32
2023-04-16T04:46:25.439Z,7.59
2023-04-16T04:49:27.493Z,7.84
2023-04-16T04:52:29.760Z,7.80
2023-04-16T04:55:31.687Z,7.66
2023-04-16T04:58:34.208Z,7.23
2023-04-16T05:01:36.955Z,7.15
2023-04-16T05:04:38.888Z,7.35
2023-04-16T05:07:41.033Z,7.19
2023-04-16T05:10:43.067Z,7.38
2023-04-16T05:13:44.928Z,7.25
2023-04-16T05:16:46.930Z,7.31
2023-04-16T05:19:49.094Z,7.37
2023-04-16T05:22:51.456Z,7.66
2023-04-16T05:25:53.322Z,7.76
2023-04-16T05:28:55.260Z,8.04
2023-04-16T05:31:57.166Z,8.22
2023-04-16T05:34:59.122Z,8.53
2023-04-16T05:38:01.078Z,8.84
2023-04-16T05:41:02.969Z,8.84
2023-04-16T05:44:05.120Z,8.82
2023-04-16T05:47:09.329Z,9.09
2023-04-16T05:50:11.386Z,9.07
2023-04-16T05:53:14.295Z,8.97
2023-04-16T05:56:16.268Z,8.85
2023-04-16T05:59:18.648Z,9.28
2023-04-16T06:02:20.900Z,9.51
2023-04-16T06:05:22.869Z,9.34
2023-04-16T06:08:25.120Z,9.69
2023-04-16T06:11:27.621Z,9.50
2023-04-16T06:14:29.576Z,9.50
2023-04-16T06:17:31.611Z,9.96
2023-04-16T06:20:33.779Z,10.14
2023-04-16T06:23:36.329Z,9.81
2023-04-16T06:26:38.215Z,10.23
2023-04-16T06:29:41.867Z,10.26
2023-04-16T06:32:44.560Z,10.66
2023-04-16T06:35:46.491Z,10.09
2023-04-16T06:38:48.321Z,10.26
2023-04-16T06:41:50.324Z,10.34
2023-04-16T06:44:53.416Z,10.85
2023-04-16T06:47:55.344Z,11.05
2023-04-16T06:50:57.374Z,11.17
2023-04-16T06:53:59.680Z,11.08
2023-04-16T06:57:01.605Z,11.41
2023-04-16T07:00:05.149Z,11.61
2023-04-16T07:03:07.282Z,11.45
2023-04-16T07:06:10.341Z,12.09
2023-04-16T07:09:12.515Z,11.82
2023-04-16T07:12:14.563Z,12.28
2023-04-16T07:15:16.896Z,12.56
2023-04-16T07:18:20.318Z,13.03
2023-04-16T07:21:22.815Z,12.38
2023-04-16T07:24:24.805Z,12.53
2023-04-16T07:27:27.210Z,13.27
2023-04-16T07:30:34.179Z,13.10
2023-04-16T07:33:36.452Z,13.09
2023-04-16T07:36:38.936Z,12.75
2023-04-16T07:39:41.412Z,13.46
2023-04-16T07:42:43.480Z,13.22
2023-04-16T07:45:45.581Z,13.64
2023-04-16T07:48:47.591Z,13.56
2023-04-16T07:51:49.640Z,13.40
2023-04-16T07:54:51.910Z,13.49
2023-04-16T07:57:54.054Z,13.57
2023-04-16T08:00:56.325Z,13.66
2023-04-16T08:03:58.560Z,13.92
2023-04-16T08:07:00.601Z,14.10
2023-04-16T08:10:02.618Z,13.92
2023-04-16T08:13:04.631Z,14.08
2023-04-16T08:16:06.835Z,14.05
2023-04-16T08:19:09.113Z,13.90
2023-04-16T08:22:12.775Z,14.28
2023-04-16T08:25:15.537Z,14.76
2023-04-16T08:28:17.421Z,14.07
2023-04-16T08:31:19.601Z,14.35
2023-04-16T08:34:21.650Z,14.42
2023-04-16T08:37:23.508Z,14.29
2023-04-16T08:40:28.685Z,14.15
2023-04-16T08:43:34.701Z,14.25
2023-04-16T08:46:37.891Z,14.65
2023-04-16T08:49:45.165Z,14.80
2023-04-16T08:53:11.135Z,14.57
2023-04-16T08:56:14.774Z,14.61
2023-04-16T08:59:17.463Z,14.40
2023-04-16T09:02:19.730Z,14.90
2023-04-16T09:05:25.629Z,15.25
2023-04-16T09:08:28.178Z,14.95
2023-04-16T09:11:30.427Z,15.34
2023-04-16T09:14:32.717Z,15.38
2023-04-16T09:17:35.082Z,15.04
2023-04-16T09:20:37.015Z,15.24
2023-04-16T09:23:40.111Z,15.82
2023-04-16T09:26:45.700Z,15.72
2023-04-16T09:29:47.667Z,15.45
2023-04-16T09:32:51.526Z,15.67
2023-04-16T09:35:53.495Z,16.35
2023-04-16T09:38:57.488Z,15.95
2023-04-16T09:41:59.927Z,16.57
2023-04-16T09:45:04.871Z,16.63
2023-04-16T09:48:07.737Z,15.56
2023-04-16T09:51:09.727Z,16.13
2023-04-16T09:54:11.684Z,16.29
2023-04-16T09:57:13.679Z,16.43
2023-04-16T10:00:18.813Z,16.45
2023-04-16T10:03:32.478Z,16.93
2023-04-16T10:06:34.568Z,16.42
2023-04-16T10:09:38.515Z,16.55
2023-04-16T10:12:41.069Z,16.33
2023-04-16T10:15:43.599Z,16.37
2023-04-16T10:18:47.413Z,16.76
2023-04-16T10:21:51.378Z,16.76
2023-04-16T10:24:54.457Z,16.64
2023-04-16T10:27:57.399Z,16.54
2023-04-16T10:31:01.607Z,16.91
2023-04-16T10:34:04.137Z,17.16
2023-04-16T10:37:05.981Z,17.08
2023-04-16T10:40:28.212Z,17.12
2023-04-16T10:43:39.114Z,17.46
2023-04-16T10:46:42.983Z,17.02
2023-04-16T10:49:48.215Z,17.14
2023-04-16T10:53:20.657Z,17.43
2023-04-16T10:56:27.669Z,17.44
2023-04-16T10:59:35.021Z,17.64
2023-04-16T11:02:41.321Z,17.70
2023-04-16T11:05:49.044Z,18.09
2023-04-16T11:08:55.088Z,17.89
2023-04-16T11:11:57.660Z,18.21
2023-04-16T11:15:08.334Z,18.49
2023-04-16T11:18:10.918Z,17.75
2023-04-16T11:21:13.548Z,17.87
2023-04-16T11:24:15.419Z,17.80
2023-04-16T11:27:17.490Z,18.02
2023-04-16T11:30:28.543Z,17.68
2023-04-16T11:33:31.616Z,17.73
2023-04-16T11:36:50.621Z,17.77
2023-04-16T11:39:53.176Z,17.90
2023-04-16T11:42:55.079Z,18.18
2023-04-16T11:45:57.063Z,18.52
2023-04-16T11:48:59.950Z,18.19
2023-04-16T11:52:02.171Z,18.31
2023-04-16T11:55:04.403Z,17.93
2023-04-16T11:58:13.671Z,18.22
2023-04-16T12:01:21.072Z,18.16
2023-04-16T12:04:27.467Z,18.18
2023-04-16T12:07:29.608Z,18.35
2023-04-16T12:10:35.203Z,17.93
2023-04-16T12:13:40.209Z,18.02
2023-04-16T12:16:42.335Z,18.46
2023-04-16T12:20:00.238Z,18.24
2023-04-16T12:23:02.216Z,18.51
2023-04-16T12:26:10.836Z,18.55
2023-04-16T12:29:28.067Z,18.68
2023-04-16T12:32:30.010Z,18.89
2023-04-16T12:35:33.591Z,18.49
2023-04-16T12:38:35.728Z,18.95
2023-04-16T12:41:39.285Z,19.10
2023-04-16T12:44:41.242Z,18.85
2023-04-16T12:47:43.175Z,18.57
2023-04-16T12:50:45.133Z,18.77
2023-04-16T12:53:47.042Z,18.73
2023-04-16T12:56:48.937Z,18.97
2023-04-16T12:59:51.017Z,19.03
2023-04-16T13:02:53.151Z,18.60
2023-04-16T13:05:56.992Z,19.17
2023-04-16T13:08:59.145Z,18.77
2023-04-16T13:12:01.679Z,18.88
2023-04-16T13:15:05.243Z,19.07
2023-04-16T13:18:07.186Z,18.53
2023-04-16T13:21:09.383Z,18.60
2023-04-16T13:24:11.344Z,18.80
2023-04-16T13:27:16.087Z,18.44
2023-04-16T13:30:18.172Z,19.08
2023-04-16T13:33:21.411Z,18.76
2023-04-16T13:36:24.703Z,18.94
2023-04-16T13:39:28.763Z,19.01
2023-04-16T13:42:32.592Z,18.99
2023-04-16T13:45:34.632Z,19.26
2023-04-16T13:48:37.356Z,19.03
2023-04-16T13:51:39.283Z,18.47
2023-04-16T13:54:41.532Z,18.66
2023-04-16T13:57:56.328Z,19.31
2023-04-16T14:00:58.350Z,18.79
2023-04-16T14:04:06.188Z,19.03
2023-04-16T14:07:08.442Z,19.13
2023-04-16T14:10:10.798Z,18.72
2023-04-16T14:13:13.227Z,18.95
2023-04-16T14:16:15.715Z,19.00
2023-04-16T14:19:17.833Z,19.14
2023-04-16T14:22:21.128Z,19.17
2023-04-16T14:25:23.843Z,19.32
2023-04-16T14:28:26.049Z,19.24
2023-04-16T14:31:28.445Z,19.31
2023-04-16T14:34:30.554Z,18.83
2023-04-16T14:37:35.857Z,19.16
2023-04-16T14:40:38.375Z,19.28
2023-04-16T14:43:41.429Z,19.27
2023-04-16T14:46:43.826Z,18.95
2023-04-16T14:49:45.811Z,18.99
2023-04-16T14:52:47.862Z,18.88
2023-04-16T14:55:51.921Z,18.87
2023-04-16T14:58:53.857Z,18.39
2023-04-16T15:01:59.210Z,18.55
2023-04-16T15:05:01.511Z,18.38
2023-04-16T15:08:03.926Z,18.39
2023-04-16T15:11:06.034Z,18.18
2023-04-16T15:14:08.192Z,18.30
2023-04-16T15:17:10.318Z,18.32
2023-04-16T15:20:12.811Z,18.37
2023-04-16T15:23:14.738Z,18.22
2023-04-16T15:26:16.858Z,18.26
2023-04-16T15:29:18.804Z,18.08
2023-04-16T15:32:21.143Z,18.20
2023-04-16T15:35:24.820Z,17.99
2023-04-16T15:38:28.669Z,17.91
2023-04-16T15:41:32.011Z,17.92
2023-04-16T15:44:34.722Z,17.98
2023-04-16T15:47:37.989Z,17.76
2023-04-16T15:50:41.945Z,17.75
2023-04-16T15:53:45.337Z,17.60
2023-04-16T15:56:47.615Z,17.58
2023-04-16T16:00:05.369Z,17.47
2023-04-16T16:06:27.189Z,17.52
2023-04-16T16:09:31.594Z,17.48
2023-04-16T16:12:33.766Z,17.33
2023-04-16T16:15:35.976Z,17.33
2023-04-16T16:18:38.158Z,17.10
2023-04-16T16:21:40.085Z,17.11
2023-04-16T16:24:42.295Z,17.12
2023-04-16T16:27:44.650Z,17.06
2023-04-16T16:30:47.530Z,16.95
2023-04-16T16:33:49.969Z,17.00
2023-04-16T16:36:51.995Z,16.93
2023-04-16T16:39:54.040Z,16.94
2023-04-16T16:42:56.147Z,16.81
2023-04-16T16:45:58.324Z,16.73
2023-04-16T16:49:00.993Z,16.67
2023-04-16T16:52:03.130Z,16.54
2023-04-16T16:55:08.695Z,16.46
2023-04-16T16:58:11.266Z,16.47
2023-04-16T17:01:13.751Z,16.29
2023-04-16T17:04:17.168Z,16.25
2023-04-16T17:10:36.454Z,16.05
2023-04-16T17:13:39.627Z,15.88
2023-04-16T17:16:41.746Z,15.82
2023-04-16T17:19:44.257Z,15.78
2023-04-16T17:22:46.320Z,15.60
2023-04-16T17:25:48.585Z,15.51
2023-04-16T17:28:51.065Z,15.38
2023-04-16T17:31:53.900Z,15.37
2023-04-16T17:34:56.394Z,15.39
2023-04-16T17:37:58.578Z,15.28
2023-04-16T17:41:00.561Z,15.20
2023-04-16T17:44:02.909Z,15.06
2023-04-16T17:47:05.291Z,15.09
2023-04-16T17:50:11.484Z,15.13
2023-04-16T17:53:13.662Z,15.18
2023-04-16T17:56:15.951Z,15.02
2023-04-16T17:59:17.942Z,15.05
2023-04-16T18:02:20.538Z,14.82
2023-04-16T18:05:33.070Z,14.82
2023-04-16T18:08:36.991Z,14.76
2023-04-16T18:11:39.574Z,14.79
2023-04-16T18:14:44.723Z,14.84
2023-04-16T18:17:47.093Z,14.93
2023-04-16T18:20:49.425Z,14.95
2023-04-16T18:23:51.481Z,15.09
2023-04-16T18:26:55.135Z,15.18
2023-04-16T18:29:57.497Z,15.07
2023-04-16T18:33:26.344Z,14.90
2023-04-16T18:36:22.530Z,14.94
2023-04-16T18:39:24.620Z,14.99
2023-04-16T18:42:29.616Z,14.99
2023-04-16T18:45:34.299Z,15.02
2023-04-16T18:48:36.901Z,15.04
2023-04-16T18:51:40.106Z,15.13
2023-04-16T18:54:42.320Z,15.08
2023-04-16T18:57:44.162Z,15.05
2023-04-16T19:00:46.664Z,15.01
2023-04-16T19:03:48.963Z,14.80
2023-04-16T19:06:51.173Z,14.82
2023-04-16T19:09:53.398Z,14.80
2023-04-16T19:12:58.339Z,14.63
2023-04-16T19:16:01.646Z,14.46
2023-04-16T19:19:03.712Z,14.50
2023-04-16T19:22:05.617Z,14.42
2023-04-16T19:25:08.188Z,14.32
2023-04-16T19:28:10.346Z,14.28
2023-04-16T19:31:12.570Z,14.40
2023-04-16T19:34:15.572Z,14.27
2023-04-16T19:37:17.511Z,14.40
2023-04-16T19:40:19.642Z,14.32
2023-04-16T19:43:21.597Z,14.22
2023-04-16T19:46:24.060Z,14.36
2023-04-16T19:49:26.342Z,14.32
2023-04-16T19:52:29.053Z,14.43
2023-04-16T19:55:31.290Z,14.26
2023-04-16T19:58:33.534Z,14.30
2023-04-16T20:01:36.025Z,14.25
2023-04-16T20:04:38.423Z,14.29
2023-04-16T20:07:40.760Z,14.11
2023-04-16T20:10:42.764Z,14.17
2023-04-16T20:13:48.185Z,14.18
2023-04-16T20:16:50.324Z,13.98
2023-04-16T20:19:52.736Z,14.10
2023-04-16T20:22:55.256Z,14.08
2023-04-16T20:25:57.309Z,14.07
2023-04-16T20:29:02.884Z,14.09
2023-04-16T20:32:05.863Z,13.98
2023-04-16T20:35:10.778Z,13.83
2023-04-16T20:38:13.152Z,13.86
2023-04-16T20:41:21.058Z,13.80
2023-04-16T20:44:40.280Z,13.63
2023-04-16T20:47:43.481Z,13.44
2023-04-16T20:50:46.018Z,13.48
2023-04-16T20:53:47.871Z,13.41
2023-04-16T20:56:50.415Z,13.33
2023-04-16T20:59:52.505Z,13.31
2023-04-16T21:02:54.878Z,13.37
2023-04-16T21:05:56.907Z,13.33
2023-04-16T21:08:59.117Z,13.25
2023-04-16T21:12:01.785Z,13.07
2023-04-16T21:15:04.827Z,13.13
2023-04-16T21:18:07.694Z,13.17
2023-04-16T21:21:09.659Z,13.23
2023-04-16T21:24:11.614Z,13.26
2023-04-16T21:27:13.483Z,13.24
2023-04-16T21:30:15.851Z,13.30
2023-04-16T21:33:17.803Z,13.15
2023-04-16T21:36:19.822Z,13.20
2023-04-16T21:39:22.104Z,13.23
2023-04-16T21:42:24.275Z,13.29
2023-04-16T21:45:26.242Z,13.12
2023-04-16T21:48:28.641Z,13.24
2023-04-16T21:51:30.579Z,13.13
2023-04-16T21:54:32.403Z,13.03
2023-04-16T21:57:34.422Z,13.12
2023-04-16T22:00:36.395Z,12.98
2023-04-16T22:03:40.487Z,12.92
2023-04-16T22:06:43.157Z,13.11
2023-04-16T22:09:45.033Z,13.02
2023-04-16T22:12:46.914Z,13.06
2023-04-16T22:15:48.737Z,13.09
2023-04-16T22:18:51.168Z,12.92
2023-04-16T22:21:53.101Z,13.08
2023-04-16T22:24:54.985Z,13.08
2023-04-16T22:27:56.862Z,12.93
2023-04-16T22:30:58.795Z,12.92
2023-04-16T22:34:02.847Z,12.91
2023-04-16T22:37:06.132Z,12.85
2023-04-16T22:40:09.787Z,12.72
2023-04-16T22:43:11.794Z,12.81
2023-04-16T22:46:13.646Z,12.81
2023-04-16T22:49:15.537Z,12.77
2023-04-16T22:52:17.407Z,12.73
2023-04-16T22:55:19.471Z,12.70
2023-04-16T22:58:21.927Z,12.55
2023-04-16T23:01:24.453Z,12.54
2023-04-16T23:04:26.497Z,12.49
2023-04-16T23:07:28.485Z,12.45
2023-04-16T23:10:30.325Z,12.40
2023-04-16T23:13:32.373Z,12.58
2023-04-16T23:16:34.232Z,12.40
2023-04-16T23:19:36.231Z,12.31
2023-04-16T23:22:38.312Z,12.47
2023-04-16T23:25:41.378Z,12.38
2023-04-16T23:28:43.220Z,12.39
2023-04-16T23:31:45.108Z,12.35
2023-04-16T23:34:47.174Z,12.41
2023-04-16T23:37:49.491Z,12.33
2023-04-16T23:40:51.627Z,12.33
2023-04-16T23:43:53.858Z,12.36
2023-04-16T23:46:55.719Z,12.33
2023-04-16T23:49:57.716Z,12.31
2023-04-16T23:52:59.691Z,12.19
2023-04-16T23:56:01.592Z,12.26
2023-04-16T23:59:03.514Z,12.24
